Time;durP1;ratioP1;P1;durP2;ratioP2;P2;SDS_P1;SDS_P2;PMS_P1;PMS_P2;Temp;Humidity;BMP_temperature;BMP_pressure;BME280_temperature;BME280_humidity;BME280_pressure;Samples;Min_cycle;Max_cycle;Signal;HPM_P1;HPM_P2
2022/06/28 00:02:17;;;;;;;6.97;4.00;;;;;;;28.04;40.82;99589.28;4497039;31;33672;-58
2022/06/28 00:04:45;;;;;;;5.68;3.80;;;;;;;27.92;41.23;99599.38;4498871;31;33239;-58
2022/06/28 00:07:13;;;;;;;9.35;4.03;;;;;;;28.14;40.73;99602.47;4491966;31;33820;-58
2022/06/28 00:09:41;;;;;;;6.30;4.30;;;;;;;28.29;40.37;99602.91;4486451;31;34056;-57
2022/06/28 00:12:09;;;;;;;5.85;4.00;;;;;;;28.32;40.03;99614.28;4497769;31;35127;-59
2022/06/28 00:17:23;;;;;;;7.22;4.20;;;;;;;28.10;40.34;99613.94;4488904;31;32409;-61
2022/06/28 00:19:51;;;;;;;7.35;4.22;;;;;;;27.90;40.60;99602.38;4498551;31;34104;-59
2022/06/28 00:22:18;;;;;;;8.57;4.55;;;;;;;27.71;40.85;99601.53;4493470;31;33892;-58
2022/06/28 00:24:46;;;;;;;7.37;4.20;;;;;;;27.72;40.74;99588.59;4494686;31;33476;-57
2022/06/28 00:27:14;;;;;;;8.07;4.05;;;;;;;27.77;40.62;99591.53;4495547;31;34389;-59
2022/06/28 00:29:41;;;;;;;7.40;4.15;;;;;;;27.67;40.82;99585.69;4498472;31;35748;-56
2022/06/28 00:32:09;;;;;;;8.48;4.05;;;;;;;27.78;40.58;99591.31;4491770;31;33978;-58
2022/06/28 00:34:37;;;;;;;9.20;4.85;;;;;;;27.73;40.52;99588.38;4496227;31;34522;-56
2022/06/28 00:37:05;;;;;;;5.20;3.37;;;;;;;27.80;40.17;99593.81;4488151;31;34666;-59
2022/06/28 00:39:32;;;;;;;8.55;3.92;;;;;;;27.86;40.33;99595.63;4486926;31;32078;-59
2022/06/28 00:42:00;;;;;;;11.15;3.92;;;;;;;27.76;41.32;99600.81;4496098;31;34150;-61
2022/06/28 00:44:28;;;;;;;9.25;4.30;;;;;;;27.82;41.19;99600.78;4500990;31;33495;-57
2022/06/28 00:46:57;;;;;;;6.72;4.20;;;;;;;27.93;40.93;99598.31;4493025;31;32349;-58
2022/06/28 00:49:25;;;;;;;7.55;4.30;;;;;;;27.91;41.12;99600.47;4501343;31;34037;-57
2022/06/28 00:51:56;;;;;;;5.70;3.87;;;;;;;27.91;40.78;99606.81;4502011;31;33770;-56
2022/06/28 00:54:23;;;;;;;6.43;4.35;;;;;;;28.03;40.70;99609.63;4496895;31;32343;-57
2022/06/28 00:56:52;;;;;;;7.90;4.10;;;;;;;27.97;40.76;99599.53;4496667;31;33906;-59
2022/06/28 00:59:19;;;;;;;9.52;4.37;;;;;;;27.98;40.52;99606.72;4497536;31;35173;-59
2022/06/28 01:01:47;;;;;;;7.15;4.30;;;;;;;27.96;40.39;99606.09;4497563;31;33771;-57
2022/06/28 01:04:15;;;;;;;7.82;3.80;;;;;;;27.89;40.48;99611.69;4497834;31;34399;-59
2022/06/28 01:06:43;;;;;;;7.07;4.18;;;;;;;27.84;40.32;99619.81;4496253;31;32378;-59
2022/06/28 01:09:11;;;;;;;5.78;4.07;;;;;;;27.82;40.34;99628.28;4497616;31;35193;-58
2022/06/28 01:11:39;;;;;;;6.47;4.18;;;;;;;27.83;40.21;99615.34;4485083;31;31929;-57
2022/06/28 01:14:07;;;;;;;9.75;4.22;;;;;;;27.75;40.28;99621.97;4499102;31;34282;-59
2022/06/28 01:16:38;;;;;;;5.78;3.55;;;;;;;27.72;40.33;99608.69;4485901;31;33812;-57
2022/06/28 01:19:08;;;;;;;8.70;4.40;;;;;;;27.74;40.58;99616.72;4494656;31;33945;-59
2022/06/28 01:21:37;;;;;;;6.35;3.65;;;;;;;27.63;41.03;99608.16;4498413;31;33593;-57
2022/06/28 01:24:05;;;;;;;5.37;3.65;;;;;;;27.57;41.34;99608.22;4501594;31;33397;-60
2022/06/28 01:26:34;;;;;;;6.65;4.43;;;;;;;27.46;41.64;99617.25;4491401;31;33938;-59
2022/06/28 01:29:02;;;;;;;7.00;4.05;;;;;;;27.68;41.00;99621.22;4499744;31;35197;-58
2022/06/28 01:31:31;;;;;;;7.12;4.32;;;;;;;27.64;41.13;99615.34;4494311;31;32702;-59
2022/06/28 01:34:00;;;;;;;8.35;4.30;;;;;;;27.65;41.48;99613.44;4493558;31;34406;-59
2022/06/28 01:36:28;;;;;;;5.43;3.60;;;;;;;27.58;41.36;99613.53;4493392;31;33880;-59
2022/06/28 01:38:57;;;;;;;5.65;3.95;;;;;;;27.60;41.13;99608.59;4499016;31;35260;-57
2022/06/28 01:41:32;;;;;;;7.87;3.78;;;;;;;27.69;41.00;99600.91;4496332;31;35030;-60
2022/06/28 01:44:05;;;;;;;7.75;4.20;;;;;;;27.63;41.39;99602.66;4500167;31;33467;-59
2022/06/28 01:46:35;;;;;;;7.20;4.43;;;;;;;27.69;41.42;99591.81;4498532;31;33814;-59
2022/06/28 01:49:05;;;;;;;8.25;4.30;;;;;;;27.67;41.31;99597.53;4495949;31;33782;-60
2022/06/28 01:51:34;;;;;;;6.28;4.05;;;;;;;27.71;41.40;99608.94;4486805;31;33695;-57
2022/06/28 01:54:03;;;;;;;5.70;4.15;;;;;;;27.66;41.25;99601.38;4496478;31;33921;-58
2022/06/28 01:56:31;;;;;;;6.93;3.92;;;;;;;27.60;41.10;99613.28;4494043;31;33876;-57
2022/06/28 01:58:59;;;;;;;7.28;4.10;;;;;;;27.50;41.33;99624.78;4495799;31;33715;-56
2022/06/28 02:01:29;;;;;;;5.80;3.87;;;;;;;27.50;41.32;99633.03;4483953;31;32388;-56
2022/06/28 02:03:57;;;;;;;9.85;4.70;;;;;;;27.41;41.59;99620.66;4496316;31;33522;-57
2022/06/28 02:06:25;;;;;;;6.78;4.50;;;;;;;27.42;41.36;99622.38;4494124;31;33667;-60
2022/06/28 02:08:53;;;;;;;7.65;4.22;;;;;;;27.24;41.75;99628.66;4498063;31;33389;-59
2022/06/28 02:11:22;;;;;;;6.60;4.72;;;;;;;27.26;41.65;99625.72;4494815;31;34027;-57
2022/06/28 02:13:50;;;;;;;7.12;4.05;;;;;;;27.20;41.78;99627.44;4496238;31;33301;-57
2022/06/28 02:16:17;;;;;;;9.30;4.22;;;;;;;27.24;41.86;99619.59;4490030;31;34306;-56
2022/06/28 02:18:46;;;;;;;6.22;4.30;;;;;;;27.21;41.85;99629.13;4490603;31;34379;-58
2022/06/28 02:21:13;;;;;;;6.97;4.47;;;;;;;27.14;42.24;99620.94;4499378;31;34750;-58
2022/06/28 02:23:41;;;;;;;7.00;4.70;;;;;;;27.24;42.03;99616.84;4493151;31;33439;-57
2022/06/28 02:26:11;;;;;;;6.93;4.47;;;;;;;27.24;42.12;99617.69;4493117;31;33479;-57
2022/06/28 02:28:40;;;;;;;8.80;4.43;;;;;;;27.26;42.18;99617.47;4495956;31;32488;-59
2022/06/28 02:31:13;;;;;;;7.40;4.37;;;;;;;27.25;42.12;99619.34;4495465;31;34558;-57
2022/06/28 02:33:42;;;;;;;8.10;4.43;;;;;;;27.16;42.04;99618.81;4487201;31;32943;-57
2022/06/28 02:41:43;;;;;;;7.12;4.37;;;;;;;26.85;42.42;99641.66;4496037;31;34847;-57
2022/06/28 02:44:11;;;;;;;6.00;4.07;;;;;;;26.58;42.85;99648.38;4498240;31;33451;-59
2022/06/28 02:46:38;;;;;;;8.57;4.37;;;;;;;26.57;42.52;99642.06;4493333;31;34958;-59
2022/06/28 02:49:06;;;;;;;7.60;4.10;;;;;;;26.77;42.05;99643.81;4492555;31;32610;-58
2022/06/28 02:51:34;;;;;;;6.72;4.12;;;;;;;26.82;42.24;99644.00;4498372;31;33614;-59
2022/06/28 02:54:01;;;;;;;7.40;3.90;;;;;;;26.81;42.15;99636.84;4495193;31;34261;-56
2022/06/28 02:56:29;;;;;;;7.20;4.35;;;;;;;26.75;42.30;99635.81;4496708;31;32617;-57
2022/06/28 02:58:57;;;;;;;6.60;4.47;;;;;;;26.87;42.07;99633.19;4497479;31;33771;-57
2022/06/28 03:01:24;;;;;;;8.10;4.20;;;;;;;26.79;42.46;99626.06;4495516;31;33790;-59
2022/06/28 03:03:52;;;;;;;7.95;4.12;;;;;;;26.88;42.18;99632.12;4496965;31;32218;-59
2022/06/28 03:06:20;;;;;;;6.90;4.57;;;;;;;26.87;41.74;99627.69;4498529;31;33644;-57
2022/06/28 03:08:48;;;;;;;7.00;4.18;;;;;;;26.87;41.88;99624.94;4497034;31;32230;-56
2022/06/28 03:11:15;;;;;;;7.22;3.95;;;;;;;26.70;42.16;99630.16;4498411;31;33764;-56
2022/06/28 03:13:43;;;;;;;6.03;4.50;;;;;;;26.75;41.91;99621.25;4495532;31;32096;-57
2022/06/28 03:16:10;;;;;;;10.60;4.68;;;;;;;26.58;42.23;99616.31;4486504;31;34545;-56
2022/06/28 03:18:38;;;;;;;8.32;4.10;;;;;;;26.69;42.14;99621.06;4494777;31;34994;-57
2022/06/28 03:21:06;;;;;;;7.12;4.10;;;;;;;26.82;41.96;99633.03;4493993;31;33399;-60
2022/06/28 03:23:33;;;;;;;6.65;3.92;;;;;;;26.76;41.67;99634.75;4494785;31;33334;-58
2022/06/28 03:26:01;;;;;;;9.00;4.40;;;;;;;26.82;41.61;99647.59;4493826;31;33680;-57
2022/06/28 03:28:28;;;;;;;8.50;4.00;;;;;;;26.90;41.62;99658.31;4486105;31;34609;-58
2022/06/28 03:30:57;;;;;;;7.40;4.20;;;;;;;26.91;41.77;99661.91;4493824;31;35113;-61
2022/06/28 03:33:24;;;;;;;6.53;4.22;;;;;;;26.80;41.85;99673.59;4494513;31;32990;-60
2022/06/28 03:35:52;;;;;;;6.35;3.40;;;;;;;26.65;41.92;99679.41;4497789;31;32395;-59
2022/06/28 03:38:21;;;;;;;6.07;3.70;;;;;;;26.55;42.38;99704.59;4487990;31;34707;-60
2022/06/28 03:40:50;;;;;;;6.80;3.85;;;;;;;26.56;42.40;99711.75;4495309;31;33940;-61
2022/06/28 03:43:18;;;;;;;7.07;3.53;;;;;;;26.72;42.01;99721.38;4495910;31;33023;-61
2022/06/28 03:45:45;;;;;;;6.03;3.80;;;;;;;26.51;42.62;99718.94;4496980;31;33774;-61
2022/06/28 03:48:15;;;;;;;6.57;4.00;;;;;;;26.63;42.46;99733.66;4496387;31;35304;-58
2022/06/28 03:50:44;;;;;;;8.02;3.67;;;;;;;26.89;42.17;99738.16;4490004;31;33464;-57
2022/06/28 03:53:12;;;;;;;6.90;4.18;;;;;;;26.98;41.97;99741.47;4491165;31;33577;-59
2022/06/28 03:55:40;;;;;;;7.25;3.78;;;;;;;26.90;42.25;99750.81;4487886;31;32353;-57
2022/06/28 03:58:08;;;;;;;7.95;3.55;;;;;;;27.09;41.95;99749.00;4496161;31;35193;-59
2022/06/28 04:00:35;;;;;;;6.32;3.47;;;;;;;27.18;41.95;99753.19;4494893;31;33462;-58
2022/06/28 04:03:03;;;;;;;5.93;3.37;;;;;;;27.38;41.98;99750.28;4494122;31;32396;-57
2022/06/28 04:05:32;;;;;;;8.10;3.62;;;;;;;27.40;40.96;99743.50;4496258;31;34988;-59
2022/06/28 04:08:00;;;;;;;7.25;3.05;;;;;;;27.53;40.82;99738.97;4496865;31;34803;-57
2022/06/28 04:10:29;;;;;;;8.77;3.42;;;;;;;27.62;40.24;99743.94;4494730;31;33862;-58
2022/06/28 04:12:59;;;;;;;7.07;3.12;;;;;;;27.74;40.26;99741.31;4489104;31;33460;-58
2022/06/28 04:15:27;;;;;;;6.05;3.22;;;;;;;27.62;40.27;99759.59;4491891;31;34504;-58
2022/06/28 04:17:55;;;;;;;7.85;3.40;;;;;;;27.88;40.02;99766.78;4496763;31;35044;-58
2022/06/28 04:20:25;;;;;;;10.18;3.62;;;;;;;27.95;39.95;99763.97;4496533;31;33147;-59
2022/06/28 04:22:53;;;;;;;6.37;3.33;;;;;;;28.05;39.31;99765.09;4497522;31;33320;-57
2022/06/28 04:25:24;;;;;;;8.32;3.60;;;;;;;28.29;38.34;99760.62;4492895;31;32427;-57
2022/06/28 04:27:56;;;;;;;7.43;3.70;;;;;;;28.09;38.42;99763.59;4491155;31;33812;-60
2022/06/28 04:30:26;;;;;;;10.77;3.45;;;;;;;28.37;38.09;99764.94;4495695;31;34927;-58
2022/06/28 04:32:54;;;;;;;6.70;3.67;;;;;;;28.45;38.04;99761.09;4493628;31;32214;-58
2022/06/28 04:35:22;;;;;;;12.05;3.80;;;;;;;28.63;38.64;99754.69;4480217;31;32379;-57
2022/06/28 04:37:51;;;;;;;6.78;3.00;;;;;;;28.65;38.17;99769.94;4493343;31;34379;-58
2022/06/28 04:40:19;;;;;;;6.32;2.87;;;;;;;28.68;38.19;99798.91;4491984;31;33882;-58
2022/06/28 04:42:48;;;;;;;6.87;3.60;;;;;;;28.56;38.59;99810.69;4493630;31;33023;-58
2022/06/28 04:45:16;;;;;;;6.82;3.87;;;;;;;28.39;39.91;99800.53;4495976;31;33894;-58
2022/06/28 04:47:45;;;;;;;6.60;3.92;;;;;;;28.48;39.42;99827.53;4496639;31;35150;-58
2022/06/28 04:50:13;;;;;;;8.07;3.90;;;;;;;27.98;40.28;99835.03;4495883;31;33909;-62
2022/06/28 04:52:41;;;;;;;7.50;3.62;;;;;;;28.31;39.56;99827.28;4496610;31;33952;-60
2022/06/28 04:55:09;;;;;;;8.63;3.70;;;;;;;28.51;39.08;99838.09;4496850;31;33578;-60
2022/06/28 04:57:37;;;;;;;9.18;3.97;;;;;;;28.42;39.38;99835.88;4494667;31;34905;-60
2022/06/28 05:00:05;;;;;;;8.23;3.80;;;;;;;28.61;39.71;99844.97;4492708;31;34717;-60
2022/06/28 05:02:36;;;;;;;7.82;4.10;;;;;;;28.81;39.73;99842.81;4491249;31;34896;-60
2022/06/28 05:05:06;;;;;;;7.45;4.18;;;;;;;28.96;39.46;99831.41;4488463;31;33769;-61
2022/06/28 05:07:35;;;;;;;7.37;3.42;;;;;;;28.88;39.41;99818.75;4494621;31;33708;-60
2022/06/28 05:10:04;;;;;;;7.87;4.30;;;;;;;28.89;39.66;99849.91;4496289;31;32582;-58
2022/06/28 05:12:32;;;;;;;10.80;3.90;;;;;;;28.69;40.61;99858.41;4496133;31;34703;-58
2022/06/28 05:15:00;;;;;;;9.20;3.92;;;;;;;28.40;41.07;99854.53;4491692;31;33831;-58
2022/06/28 05:17:29;;;;;;;10.10;4.00;;;;;;;27.67;42.95;99860.62;4495231;31;34889;-58
2022/06/28 05:19:57;;;;;;;7.43;3.90;;;;;;;27.63;43.29;99871.25;4494630;31;33757;-62
2022/06/28 05:22:24;;;;;;;8.40;3.55;;;;;;;27.13;44.92;99872.00;4495312;31;32677;-64
2022/06/28 05:24:55;;;;;;;5.32;2.95;;;;;;;27.16;45.33;99867.97;4496531;31;33660;-59
2022/06/28 05:27:22;;;;;;;6.50;3.47;;;;;;;26.39;47.79;99858.72;4494703;31;35169;-62
2022/06/28 05:29:50;;;;;;;8.73;3.90;;;;;;;26.22;48.70;99850.94;4491002;31;32806;-58
2022/06/28 05:32:18;;;;;;;9.30;3.35;;;;;;;26.29;48.84;99845.41;4487723;31;33177;-57
2022/06/28 05:34:46;;;;;;;7.28;3.75;;;;;;;26.22;49.53;99845.44;4488394;31;34627;-62
2022/06/28 05:37:13;;;;;;;7.35;4.00;;;;;;;26.17;49.73;99830.69;4498105;31;34308;-60
2022/06/28 05:39:41;;;;;;;9.15;4.80;;;;;;;26.54;48.90;99833.78;4496471;31;35143;-58
2022/06/28 05:42:08;;;;;;;7.05;4.40;;;;;;;26.42;54.46;99796.03;4498596;31;34716;-58
2022/06/28 05:44:36;;;;;;;9.63;4.10;;;;;;;26.37;53.72;99801.31;4495606;31;34030;-59
2022/06/28 05:47:04;;;;;;;7.57;4.10;;;;;;;25.78;57.43;99792.12;4497376;31;32894;-63
2022/06/28 05:49:32;;;;;;;14.10;5.37;;;;;;;26.48;54.12;99739.44;4494426;31;33857;-59
2022/06/28 05:51:59;;;;;;;13.05;5.53;;;;;;;25.99;55.82;99719.75;4491239;31;33821;-60
2022/06/28 05:54:27;;;;;;;11.55;4.50;;;;;;;25.52;57.86;99719.00;4495644;31;32925;-58
2022/06/28 05:56:55;;;;;;;11.93;5.05;;;;;;;26.32;55.26;99729.75;4496102;31;32733;-58
2022/06/28 05:59:23;;;;;;;9.70;4.82;;;;;;;26.57;55.59;99746.34;4493579;31;32622;-56
2022/06/28 06:01:50;;;;;;;11.68;5.40;;;;;;;26.69;56.80;99732.78;4496719;31;33410;-60
2022/06/28 06:04:18;;;;;;;10.18;4.82;;;;;;;26.89;56.23;99733.50;4493074;31;32604;-59
2022/06/28 06:06:46;;;;;;;8.65;4.57;;;;;;;26.92;54.92;99729.47;4494932;31;34128;-56
2022/06/28 06:09:14;;;;;;;9.13;4.93;;;;;;;26.98;54.73;99730.50;4492162;31;34773;-58
2022/06/28 06:11:42;;;;;;;7.68;4.80;;;;;;;26.94;56.66;99721.88;4497037;31;33005;-59
2022/06/28 06:14:10;;;;;;;22.37;5.78;;;;;;;27.21;56.32;99702.47;4497404;31;34963;-57
2022/06/28 06:16:38;;;;;;;12.18;5.93;;;;;;;27.20;56.68;99678.81;4493030;31;34896;-57
2022/06/28 06:19:06;;;;;;;9.07;4.30;;;;;;;27.29;56.27;99660.97;4497775;31;33827;-57
2022/06/28 06:21:33;;;;;;;13.10;5.75;;;;;;;26.85;57.70;99647.16;4494993;31;32580;-58
2022/06/28 06:24:02;;;;;;;7.70;4.60;;;;;;;27.00;57.67;99651.44;4494355;31;34983;-57
2022/06/28 06:26:31;;;;;;;18.33;5.50;;;;;;;26.60;58.14;99717.63;4497151;31;34302;-59
2022/06/28 06:29:00;;;;;;;11.85;5.12;;;;;;;26.56;59.24;99793.25;4495924;31;34060;-58
2022/06/28 06:31:28;;;;;;;9.23;3.85;;;;;;;26.05;59.94;99767.44;4495456;31;33363;-58
2022/06/28 06:33:57;;;;;;;12.80;4.32;;;;;;;25.82;58.13;99732.25;4497054;31;32633;-57
2022/06/28 06:36:25;;;;;;;7.20;3.47;;;;;;;26.25;56.06;99718.81;4496874;31;34121;-57
2022/06/28 06:38:54;;;;;;;8.70;4.40;;;;;;;26.36;56.46;99694.53;4489785;31;33670;-57
2022/06/28 06:41:22;;;;;;;11.12;4.18;;;;;;;26.47;57.11;99653.50;4494320;31;33411;-56
2022/06/28 06:43:52;;;;;;;12.60;4.30;;;;;;;26.56;56.91;99675.22;4485900;31;32504;-58
2022/06/28 06:46:20;;;;;;;13.68;4.53;;;;;;;26.69;56.43;99722.66;4492459;31;33802;-57
2022/06/28 06:48:50;;;;;;;11.30;4.97;;;;;;;26.63;57.43;99750.97;4496882;31;33856;-57
2022/06/28 06:51:19;;;;;;;10.27;4.70;;;;;;;26.47;56.66;99735.81;4484383;31;34458;-57
2022/06/28 06:53:47;;;;;;;14.07;4.43;;;;;;;26.21;58.44;99780.66;4496723;31;31909;-57
2022/06/28 06:56:15;;;;;;;11.77;4.10;;;;;;;25.97;59.03;99778.59;4488840;31;33749;-57
2022/06/28 06:58:42;;;;;;;12.25;3.37;;;;;;;26.36;58.18;99776.84;4492959;31;34217;-57
2022/06/28 07:01:10;;;;;;;11.85;3.80;;;;;;;26.55;56.95;99786.06;4492151;31;33150;-59
2022/06/28 07:03:58;;;;;;;11.43;3.42;;;;;;;26.29;55.51;99760.38;4490104;31;34780;-59
2022/06/28 07:06:25;;;;;;;8.40;3.55;;;;;;;26.44;54.37;99758.22;4493471;31;34108;-57
2022/06/28 07:08:53;;;;;;;11.20;3.95;;;;;;;26.46;55.41;99774.47;4493943;31;35518;-59
2022/06/28 07:11:21;;;;;;;8.48;3.08;;;;;;;26.38;55.54;99750.84;4490741;31;32337;-59
2022/06/28 07:13:49;;;;;;;9.38;2.50;;;;;;;25.70;58.02;99751.22;4487698;31;33573;-57
2022/06/28 07:16:18;;;;;;;11.73;2.85;;;;;;;26.18;55.55;99737.22;4493096;31;32596;-57
2022/06/28 07:18:46;;;;;;;7.93;2.95;;;;;;;26.21;54.56;99730.44;4492670;31;34857;-58
2022/06/28 07:21:14;;;;;;;11.55;2.92;;;;;;;26.27;54.34;99734.25;4494166;31;33027;-59
2022/06/28 07:23:41;;;;;;;11.82;2.90;;;;;;;26.29;54.11;99718.37;4495289;31;33667;-58
2022/06/28 07:26:10;;;;;;;9.73;2.85;;;;;;;26.32;55.01;99715.22;4496847;31;33896;-57
2022/06/28 07:28:38;;;;;;;7.68;2.75;;;;;;;26.22;55.40;99713.75;4491562;31;32930;-57
2022/06/28 07:31:06;;;;;;;12.40;2.75;;;;;;;25.57;58.12;99688.22;4477869;31;97257;-59
2022/06/28 07:33:34;;;;;;;10.30;2.85;;;;;;;25.53;57.73;99690.53;4492521;31;33901;-58
2022/06/28 07:36:01;;;;;;;14.07;3.17;;;;;;;25.70;56.98;99685.44;4495904;31;34048;-58
2022/06/28 07:38:29;;;;;;;9.27;2.62;;;;;;;25.82;56.59;99707.59;4485903;31;33283;-58
2022/06/28 07:41:02;;;;;;;6.85;2.62;;;;;;;25.88;56.68;99747.03;4496398;31;31994;-58
2022/06/28 07:43:32;;;;;;;7.07;2.83;;;;;;;25.41;59.25;99733.31;4487916;31;34782;-57
2022/06/28 07:46:01;;;;;;;8.63;2.55;;;;;;;25.89;58.61;99743.22;4488734;31;33675;-57
2022/06/28 07:48:30;;;;;;;9.50;2.30;;;;;;;26.08;56.00;99742.31;4490777;31;34672;-58
2022/06/28 07:53:48;;;;;;;7.40;2.65;;;;;;;25.62;58.96;99787.09;4486284;31;33826;-57
2022/06/28 07:56:16;;;;;;;10.27;3.85;;;;;;;25.62;58.70;99787.09;4483096;31;34065;-57
2022/06/28 07:58:44;;;;;;;14.60;3.47;;;;;;;25.95;58.79;99792.56;4495848;31;33810;-57
2022/06/28 08:01:12;;;;;;;6.28;3.20;;;;;;;25.94;58.10;99782.66;4493678;31;33588;-57
2022/06/28 08:03:40;;;;;;;11.50;3.42;;;;;;;26.22;57.37;99781.50;4489965;31;32720;-57
2022/06/28 08:06:08;;;;;;;8.35;3.45;;;;;;;26.25;56.56;99775.59;4490778;31;32931;-58
2022/06/28 08:08:37;;;;;;;8.73;3.50;;;;;;;26.35;56.92;99783.38;4495134;31;34102;-58
2022/06/28 08:11:05;;;;;;;10.88;3.50;;;;;;;26.48;57.16;99783.34;4493955;31;32738;-58
2022/06/28 08:13:33;;;;;;;10.50;3.55;;;;;;;26.47;57.77;99779.72;4493483;31;33729;-57
2022/06/28 08:16:01;;;;;;;8.40;3.30;;;;;;;26.49;58.09;99787.78;4494427;31;32617;-59
2022/06/28 08:18:29;;;;;;;8.15;3.22;;;;;;;26.54;56.93;99773.41;4495817;31;35435;-58
2022/06/28 08:20:57;;;;;;;9.65;3.60;;;;;;;26.66;56.59;99768.91;4491245;31;33468;-59
2022/06/28 08:23:24;;;;;;;9.60;3.75;;;;;;;26.27;58.10;99765.25;4486512;31;32415;-58
2022/06/28 08:25:52;;;;;;;11.90;3.75;;;;;;;26.51;57.63;99766.44;4492656;31;34013;-59
2022/06/28 08:28:20;;;;;;;8.82;3.85;;;;;;;26.25;57.78;99770.94;4494740;31;35005;-57
2022/06/28 08:30:48;;;;;;;8.18;3.60;;;;;;;26.68;56.80;99769.56;4493041;31;32925;-57
2022/06/28 08:33:15;;;;;;;9.07;3.55;;;;;;;26.07;58.25;99778.16;4491715;31;35134;-58
2022/06/28 08:35:43;;;;;;;8.80;3.37;;;;;;;26.62;57.91;99781.41;4488002;31;32613;-59
2022/06/28 08:38:11;;;;;;;8.13;3.78;;;;;;;26.19;58.39;99784.69;4483703;31;34347;-57
2022/06/28 08:40:40;;;;;;;6.80;2.70;;;;;;;26.43;58.18;99789.47;4495952;31;32095;-58
2022/06/28 08:43:07;;;;;;;8.52;3.92;;;;;;;26.61;58.58;99786.06;4494872;31;35251;-56
2022/06/28 08:45:36;;;;;;;8.40;3.22;;;;;;;26.73;57.59;99785.34;4493828;31;35148;-57
2022/06/28 08:48:28;;;;;;;7.82;3.47;;;;;;;26.52;58.96;99784.62;4491867;31;33548;-57
2022/06/28 08:50:57;;;;;;;9.93;3.30;;;;;;;26.52;58.15;99787.34;4490149;31;33528;-57
2022/06/28 08:53:25;;;;;;;10.93;3.62;;;;;;;26.63;56.67;99794.06;4485542;31;33784;-59
2022/06/28 08:55:52;;;;;;;10.07;2.90;;;;;;;26.70;57.67;99801.19;4493342;31;32819;-57
2022/06/28 08:58:21;;;;;;;6.85;2.47;;;;;;;26.61;56.94;99799.78;4493003;31;35028;-57
2022/06/28 09:00:48;;;;;;;8.55;2.65;;;;;;;26.82;56.26;99804.09;4493514;31;33157;-58
2022/06/28 09:03:18;;;;;;;6.68;3.00;;;;;;;27.28;56.14;99803.00;4486878;31;32425;-59
2022/06/28 09:05:46;;;;;;;6.70;2.45;;;;;;;27.20;56.51;99807.94;4484653;31;34190;-61
2022/06/28 09:08:14;;;;;;;5.05;2.33;;;;;;;26.95;56.80;99817.75;4492311;31;34908;-59
2022/06/28 09:10:43;;;;;;;6.85;2.40;;;;;;;26.79;57.03;99807.28;4488674;31;33420;-57
2022/06/28 09:13:17;;;;;;;4.53;2.20;;;;;;;26.65;57.21;99814.75;4493178;31;32594;-57
2022/06/28 09:15:59;;;;;;;5.28;2.35;;;;;;;27.61;54.92;99805.50;4486591;31;34334;-57
2022/06/28 09:18:36;;;;;;;6.70;2.35;;;;;;;27.17;56.51;99815.53;4496661;31;33639;-57
2022/06/28 09:21:09;;;;;;;5.82;2.83;;;;;;;27.15;54.84;99812.16;4492615;31;33404;-58
2022/06/28 09:23:40;;;;;;;5.68;3.03;;;;;;;26.92;55.13;99822.84;4495251;31;34703;-59
2022/06/28 09:26:10;;;;;;;6.00;2.92;;;;;;;27.08;56.02;99825.06;4494660;31;32809;-58
2022/06/28 09:28:43;;;;;;;8.38;3.60;;;;;;;27.44;57.05;99820.84;4492883;31;33625;-58
2022/06/28 09:31:18;;;;;;;8.73;3.30;;;;;;;27.62;56.91;99820.09;4497216;31;32248;-59
2022/06/28 09:34:07;;;;;;;8.23;3.22;;;;;;;27.61;56.55;99816.50;4492901;31;33685;-59
2022/06/28 09:36:39;;;;;;;9.23;3.65;;;;;;;28.24;56.03;99814.66;4493121;31;34072;-58
2022/06/28 09:39:12;;;;;;;4.70;3.30;;;;;;;28.44;53.53;99817.19;4497500;31;32820;-57
2022/06/28 09:41:45;;;;;;;8.43;3.62;;;;;;;28.67;53.12;99819.25;4497972;31;33449;-57
2022/06/28 09:44:33;;;;;;;8.65;2.90;;;;;;;28.43;54.06;99826.53;4496611;31;33620;-58
2022/06/28 09:47:00;;;;;;;8.52;3.50;;;;;;;27.99;53.90;99829.28;4496348;31;32654;-59
2022/06/28 09:49:29;;;;;;;5.20;3.00;;;;;;;28.89;53.82;99825.97;4493875;31;35276;-58
2022/06/28 09:51:59;;;;;;;5.03;2.75;;;;;;;29.22;52.80;99836.56;4493309;31;32420;-58
2022/06/28 09:54:29;;;;;;;5.03;2.58;;;;;;;29.07;51.67;99830.63;4494724;31;33682;-57
2022/06/28 09:56:57;;;;;;;8.93;3.70;;;;;;;29.15;51.43;99827.56;4495411;31;34687;-58
2022/06/28 09:59:27;;;;;;;5.55;2.90;;;;;;;29.56;51.73;99823.06;4483289;31;33690;-58
2022/06/28 10:01:56;;;;;;;6.22;2.85;;;;;;;29.26;51.88;99834.16;4483177;32;33442;-58
2022/06/28 10:04:26;;;;;;;9.00;3.75;;;;;;;29.84;49.51;99821.59;4492802;31;32495;-57
2022/06/28 10:06:54;;;;;;;6.28;3.08;;;;;;;30.23;48.71;99828.34;4496288;31;33047;-56
2022/06/28 10:09:22;;;;;;;7.12;3.42;;;;;;;30.56;48.04;99824.06;4485469;31;33556;-57
2022/06/28 10:17:41;;;;;;;7.90;3.30;;;;;;;30.42;48.94;99834.56;4490242;31;32830;-57
2022/06/28 10:20:17;;;;;;;7.68;3.58;;;;;;;30.82;47.64;99836.53;4497000;31;34984;-58
2022/06/28 10:22:46;;;;;;;6.53;3.03;;;;;;;31.51;45.29;99831.78;4486282;31;33985;-58
2022/06/28 10:25:18;;;;;;;6.87;4.00;;;;;;;31.61;44.62;99828.34;4498729;31;35471;-58
2022/06/28 10:27:48;;;;;;;5.40;3.60;;;;;;;31.51;45.74;99834.53;4495281;31;33924;-59
2022/06/28 10:30:24;;;;;;;8.45;3.58;;;;;;;31.27;45.71;99825.53;4500601;31;33974;-60
2022/06/28 10:32:55;;;;;;;5.85;2.70;;;;;;;31.06;44.90;99820.69;4497638;31;34318;-60
2022/06/28 10:35:28;;;;;;;6.97;3.67;;;;;;;31.20;45.56;99824.81;4498267;31;32549;-60
2022/06/28 10:38:08;;;;;;;5.22;3.45;;;;;;;31.82;44.78;99820.41;4495455;31;36147;-57
2022/06/28 10:40:41;;;;;;;6.78;3.30;;;;;;;31.04;46.23;99820.97;4496934;31;33983;-60
2022/06/28 10:43:15;;;;;;;6.15;3.42;;;;;;;31.86;44.93;99818.78;4498339;31;33546;-60
2022/06/28 10:46:07;;;;;;;7.82;3.72;;;;;;;31.89;43.98;99818.31;4498856;31;33832;-61
2022/06/28 10:48:47;;;;;;;4.90;2.92;;;;;;;31.98;43.33;99823.19;4491972;31;33007;-58
2022/06/28 10:51:15;;;;;;;6.50;3.40;;;;;;;32.24;40.98;99812.47;4494802;31;35200;-60
2022/06/28 10:54:00;;;;;;;9.60;3.80;;;;;;;32.30;41.14;99805.09;4499072;31;32147;-58
2022/06/28 10:56:29;;;;;;;6.53;3.22;;;;;;;32.29;41.84;99806.16;4485602;31;33679;-61
2022/06/28 10:59:08;;;;;;;6.03;3.65;;;;;;;32.22;41.44;99809.94;4495648;31;34044;-59
2022/06/28 11:01:44;;;;;;;5.22;3.03;;;;;;;32.44;42.14;99803.63;4498771;31;33516;-58
2022/06/28 11:04:19;;;;;;;14.38;3.78;;;;;;;32.31;40.46;99806.75;4497639;31;34695;-58
2022/06/28 11:07:21;;;;;;;9.38;3.45;;;;;;;33.06;38.72;99800.50;4496642;31;35579;-61
2022/06/28 11:10:00;;;;;;;6.87;3.83;;;;;;;32.92;40.56;99802.00;4491708;31;34402;-58
2022/06/28 11:12:28;;;;;;;7.22;3.72;;;;;;;33.11;40.60;99796.97;4489296;31;33524;-58
2022/06/28 11:15:01;;;;;;;7.25;3.35;;;;;;;32.81;41.62;99800.19;4497948;31;33301;-58
2022/06/28 11:17:41;;;;;;;6.12;3.42;;;;;;;32.16;40.07;99807.38;4499856;31;32594;-59
2022/06/28 11:20:11;;;;;;;6.28;3.60;;;;;;;32.76;40.43;99798.22;4496464;31;35072;-58
2022/06/28 11:22:45;;;;;;;8.82;3.65;;;;;;;32.95;39.58;99790.38;4486103;31;33340;-59
2022/06/28 11:25:20;;;;;;;5.87;3.35;;;;;;;32.57;40.59;99794.94;4492241;31;34730;-58
2022/06/28 11:27:53;;;;;;;6.20;3.03;;;;;;;33.03;39.56;99792.69;4493187;31;33886;-59
2022/06/28 11:30:27;;;;;;;5.45;3.33;;;;;;;32.55;41.08;99797.13;4497876;31;33767;-58
2022/06/28 11:32:59;;;;;;;6.60;3.50;;;;;;;32.91;40.07;99801.16;4498630;31;34192;-58
2022/06/28 11:35:29;;;;;;;7.68;4.07;;;;;;;32.90;40.43;99793.09;4496208;31;32733;-58
2022/06/28 11:38:02;;;;;;;6.15;3.70;;;;;;;33.14;40.96;99785.34;4496538;31;32529;-59
2022/06/28 11:40:39;;;;;;;7.62;3.53;;;;;;;32.67;40.83;99781.19;4495900;31;33986;-60
2022/06/28 11:43:11;;;;;;;7.15;3.85;;;;;;;32.90;40.25;99779.22;4497356;31;33876;-58
2022/06/28 11:45:48;;;;;;;7.82;4.00;;;;;;;33.43;40.09;99772.03;4493902;31;33774;-58
2022/06/28 11:48:17;;;;;;;6.70;4.22;;;;;;;33.27;41.06;99773.00;4492975;31;32570;-60
2022/06/28 11:50:51;;;;;;;7.25;4.00;;;;;;;33.42;40.34;99772.25;4498823;31;33933;-58
2022/06/28 11:53:20;;;;;;;6.03;4.10;;;;;;;33.62;39.93;99764.16;4498518;31;34792;-58
2022/06/28 11:55:49;;;;;;;6.82;4.32;;;;;;;33.22;40.45;99768.22;4497751;31;32309;-58
2022/06/28 11:58:20;;;;;;;7.47;3.92;;;;;;;33.46;39.77;99763.16;4485617;31;33636;-58
2022/06/28 12:01:06;;;;;;;6.07;3.60;;;;;;;33.11;40.21;99761.75;4494356;31;34890;-59